Time;durP1;ratioP1;P1;durP2;ratioP2;P2;SDS_P1;SDS_P2;PMS_P1;PMS_P2;Temp;Humidity;BMP_temperature;BMP_pressure;BME280_temperature;BME280_humidity;BME280_pressure;Samples;Min_cycle;Max_cycle;Signal;HPM_P1;HPM_P2
2021/01/17 04:39:29;;;;;;;29.37;11.65;;;;;;;-19.13;66.81;99238.52;1777043;79;28421;-63
2021/01/17 04:41:58;;;;;;;32.20;13.58;;;;;;;-19.20;66.87;99237.63;1749625;82;21072;-62
2021/01/17 04:44:34;;;;;;;35.33;14.43;;;;;;;-19.16;66.84;99254.79;1749650;82;21192;-63
2021/01/17 04:47:04;;;;;;;34.30;13.62;;;;;;;-19.10;66.95;99259.81;1749601;82;21120;-63
2021/01/17 04:49:37;;;;;;;27.90;12.50;;;;;;;-18.97;67.04;99256.56;1744842;82;21161;-62
2021/01/17 04:52:09;;;;;;;29.12;13.20;;;;;;;-18.82;66.77;99250.59;1719822;83;21021;-62
2021/01/17 04:54:36;;;;;;;;;;;;;;;-18.79;66.48;99255.77;1722432;83;21512;-62
2021/01/17 04:57:53;;;;;;;31.82;13.08;;;;;;;-18.77;66.59;99248.02;1719733;83;21304;-62
2021/01/17 05:00:25;;;;;;;28.65;13.05;;;;;;;-18.64;66.68;99256.43;1719542;83;21627;-63
2021/01/17 05:03:00;;;;;;;26.35;12.55;;;;;;;-18.49;66.31;99259.05;1719713;82;21009;-63
2021/01/17 05:05:30;;;;;;;32.05;13.90;;;;;;;-18.47;66.10;99257.54;1719789;82;21063;-63
2021/01/17 05:08:16;;;;;;;30.35;14.43;;;;;;;-18.39;66.11;99246.53;1666245;83;21067;-63
2021/01/17 05:10:47;;;;;;;25.30;13.00;;;;;;;-18.34;66.09;99248.91;1719793;83;22364;-63
2021/01/17 05:13:17;;;;;;;32.08;14.63;;;;;;;-18.14;66.08;99256.45;1692276;83;21016;-63
2021/01/17 05:15:46;;;;;;;34.37;13.67;;;;;;;-17.97;65.80;99252.22;1720032;82;21473;-62
2021/01/17 05:18:15;;;;;;;34.25;13.98;;;;;;;-17.81;65.47;99251.63;1719736;83;21142;-62
2021/01/17 05:20:44;;;;;;;31.85;14.05;;;;;;;-17.66;65.11;99246.78;1719785;83;21579;-62
2021/01/17 05:23:12;;;;;;;32.63;13.10;;;;;;;-17.57;64.76;99249.44;1719741;83;21201;-63
2021/01/17 05:25:40;;;;;;;37.03;16.65;;;;;;;-17.51;64.42;99255.19;1719753;83;21508;-63
2021/01/17 05:28:09;;;;;;;29.80;15.10;;;;;;;-17.46;64.34;99257.22;1692063;83;21681;-62
2021/01/17 05:30:37;;;;;;;36.38;16.20;;;;;;;-17.39;64.01;99266.31;1719757;83;21503;-62
2021/01/17 05:33:09;;;;;;;48.78;21.17;;;;;;;-17.32;63.75;99266.78;1692081;83;21563;-63
2021/01/17 05:35:37;;;;;;;50.05;20.23;;;;;;;-17.24;63.60;99261.07;1719888;83;21381;-62
2021/01/17 05:38:06;;;;;;;43.13;18.90;;;;;;;-17.16;63.22;99259.91;1715522;83;21177;-62
2021/01/17 05:40:34;;;;;;;45.90;19.48;;;;;;;-17.17;63.12;99264.02;1707041;84;21527;-63
2021/01/17 05:43:03;;;;;;;38.67;18.92;;;;;;;-17.06;63.01;99266.34;1706959;84;21131;-63
2021/01/17 05:45:31;;;;;;;43.33;18.98;;;;;;;-16.97;62.79;99268.14;1707083;83;21508;-62
2021/01/17 05:48:00;;;;;;;42.00;19.10;;;;;;;-16.93;62.57;99264.70;1707085;84;22044;-62
2021/01/17 05:50:32;;;;;;;49.18;20.17;;;;;;;-16.95;62.52;99271.20;1706469;82;21064;-63
2021/01/17 05:53:04;;;;;;;53.27;23.13;;;;;;;-16.93;62.45;99272.55;1706788;84;22491;-63
2021/01/17 05:55:39;;;;;;;116.57;39.23;;;;;;;-16.94;62.49;99281.62;1706472;83;21120;-63
2021/01/17 05:58:31;;;;;;;92.97;33.92;;;;;;;-16.91;62.50;99274.75;1706550;82;21475;-63
2021/01/17 06:01:02;;;;;;;59.42;24.75;;;;;;;-16.77;62.65;99275.21;1706572;84;22144;-63
2021/01/17 06:03:33;;;;;;;43.02;21.05;;;;;;;-16.56;62.71;99272.77;1686482;84;21139;-63
2021/01/17 06:06:07;;;;;;;43.38;19.98;;;;;;;-16.34;62.65;99272.44;1706455;83;21164;-63
2021/01/17 06:08:36;;;;;;;70.45;32.17;;;;;;;-16.09;62.62;99272.28;1706451;82;21148;-63
2021/01/17 06:11:13;;;;;;;77.47;33.98;;;;;;;-15.83;62.12;99276.31;1665181;84;21096;-63
2021/01/17 06:13:42;;;;;;;75.55;33.42;;;;;;;-15.60;61.61;99273.92;1706415;83;21372;-63
2021/01/17 06:16:39;;;;;;;76.22;32.90;;;;;;;-15.39;61.43;99272.62;1706417;84;21116;-63
2021/01/17 06:19:09;;;;;;;62.53;28.57;;;;;;;-15.18;61.11;99276.67;1706413;84;21481;-62
2021/01/17 06:21:39;;;;;;;42.20;20.88;;;;;;;-14.98;60.74;99264.09;1706459;84;21505;-63
2021/01/17 06:24:12;;;;;;;35.63;18.15;;;;;;;-14.85;60.46;99267.33;1706393;84;21084;-63
2021/01/17 06:26:40;;;;;;;36.77;16.80;;;;;;;-14.79;60.50;99265.18;1706589;84;22250;-63
2021/01/17 06:29:10;;;;;;;31.68;16.17;;;;;;;-14.74;59.89;99257.91;1706394;83;21509;-62
2021/01/17 06:31:39;;;;;;;38.65;17.37;;;;;;;-14.84;60.06;99254.08;1706506;84;21493;-63
2021/01/17 06:34:11;;;;;;;39.10;17.23;;;;;;;-14.85;60.22;99256.48;1706411;84;21088;-63
2021/01/17 06:36:41;;;;;;;36.03;17.67;;;;;;;-14.77;60.31;99265.23;1706628;84;21072;-63
2021/01/17 06:39:23;;;;;;;37.75;19.37;;;;;;;-14.60;60.32;99270.77;1714810;83;21444;-62
2021/01/17 06:41:58;;;;;;;34.92;17.48;;;;;;;-14.43;60.18;99262.54;1720015;83;21182;-62
2021/01/17 06:44:29;;;;;;;33.95;17.90;;;;;;;-14.41;60.01;99260.13;1719758;83;21611;-62
2021/01/17 06:46:57;;;;;;;36.83;18.32;;;;;;;-14.35;60.33;99260.39;1719905;83;21079;-63
2021/01/17 06:49:36;;;;;;;36.73;20.10;;;;;;;-14.17;60.43;99248.00;1720021;82;21508;-63
2021/01/17 06:52:05;;;;;;;69.65;30.62;;;;;;;-14.01;60.54;99245.53;1719953;83;21379;-63
2021/01/17 06:54:36;;;;;;;88.50;37.53;;;;;;;-13.81;60.30;99223.66;1719849;83;21171;-63
2021/01/17 06:57:05;;;;;;;37.55;19.15;;;;;;;-13.71;60.35;99239.56;1720152;83;21575;-64
2021/01/17 06:59:39;;;;;;;36.17;19.12;;;;;;;-13.56;59.89;99244.45;1719921;82;21579;-63
2021/01/17 07:02:19;;;;;;;33.95;16.95;;;;;;;-13.70;59.71;99246.67;1719917;82;21074;-64
2021/01/17 07:05:11;;;;;;;34.67;18.10;;;;;;;-13.86;59.98;99246.30;1720072;83;22281;-64
2021/01/17 07:08:06;;;;;;;35.52;18.55;;;;;;;-13.87;60.37;99248.72;1719838;83;21115;-63
2021/01/17 07:10:41;;;;;;;39.55;19.70;;;;;;;-13.71;60.68;99253.70;1718952;83;21163;-63
2021/01/17 07:13:11;;;;;;;37.78;17.65;;;;;;;-13.57;61.00;99253.99;1720034;83;21111;-63
2021/01/17 07:15:42;;;;;;;35.38;19.00;;;;;;;-13.40;60.92;99247.34;1693911;83;21096;-63
2021/01/17 07:18:15;;;;;;;37.48;19.42;;;;;;;-13.31;60.63;99241.13;1719896;83;21369;-63
2021/01/17 07:20:48;;;;;;;40.70;19.85;;;;;;;-13.22;60.42;99243.23;1719860;83;21079;-63
2021/01/17 07:23:18;;;;;;;47.78;23.80;;;;;;;-13.18;60.27;99243.81;1719955;83;21093;-64
2021/01/17 07:25:48;;;;;;;48.35;23.90;;;;;;;-13.06;60.39;99247.28;1719895;83;21063;-63
2021/01/17 07:28:20;;;;;;;59.98;26.48;;;;;;;-13.04;60.12;99241.96;1719927;83;21536;-63
2021/01/17 07:31:11;;;;;;;65.80;29.40;;;;;;;-12.97;60.68;99237.69;1720118;83;22248;-63
2021/01/17 07:33:39;;;;;;;72.12;32.42;;;;;;;-12.70;61.21;99237.73;1719349;83;21839;-63
2021/01/17 07:36:15;;;;;;;76.62;36.60;;;;;;;-12.37;60.95;99242.15;1719988;83;21095;-64
2021/01/17 07:38:45;;;;;;;89.35;39.83;;;;;;;-12.07;60.82;99245.17;1719862;83;21532;-64
2021/01/17 07:41:14;;;;;;;71.40;34.08;;;;;;;-11.74;60.68;99231.06;1719890;83;21191;-63
2021/01/17 07:43:44;;;;;;;60.58;28.20;;;;;;;-11.42;59.94;99226.16;1719990;83;22272;-64
2021/01/17 07:46:17;;;;;;;89.97;38.88;;;;;;;-11.31;59.26;99230.80;1719876;83;21131;-64
2021/01/17 07:48:48;;;;;;;125.60;53.78;;;;;;;-11.44;58.67;99230.25;1719936;83;21485;-63
2021/01/17 07:51:17;;;;;;;96.63;41.80;;;;;;;-11.50;59.15;99225.83;1719944;82;21492;-64
2021/01/17 07:53:59;;;;;;;77.20;36.25;;;;;;;-11.38;59.08;99224.20;1719926;83;21166;-63
2021/01/17 07:56:35;;;;;;;;;;;;;;;-11.28;58.87;99228.82;1722446;83;21382;-64
2021/01/17 07:59:05;;;;;;;64.90;30.05;;;;;;;-11.28;59.01;99229.68;1719927;83;20613;-63
2021/01/17 08:01:39;;;;;;;67.22;31.23;;;;;;;-11.10;58.72;99233.72;1719841;83;21555;-64
2021/01/17 08:04:16;;;;;;;103.85;39.83;;;;;;;-11.00;58.79;99224.52;1719947;83;21504;-64
2021/01/17 08:06:50;;;;;;;73.35;34.75;;;;;;;-10.98;58.34;99225.00;1719947;83;21124;-63
2021/01/17 08:09:19;;;;;;;65.60;33.85;;;;;;;-11.00;58.73;99225.38;1719841;82;23458;-63
2021/01/17 08:11:57;;;;;;;68.80;33.40;;;;;;;-10.90;58.42;99224.92;1719823;83;21084;-63
2021/01/17 08:14:35;;;;;;;62.78;33.58;;;;;;;-10.90;58.18;99219.03;1719851;83;21571;-64
2021/01/17 08:17:16;;;;;;;62.55;31.48;;;;;;;-10.82;58.64;99220.20;1719981;83;21555;-63
2021/01/17 08:19:57;;;;;;;58.83;28.60;;;;;;;-10.55;58.58;99217.86;1719886;83;21567;-62
2021/01/17 08:22:31;;;;;;;65.28;32.38;;;;;;;-10.35;58.17;99219.47;1719937;83;21475;-63
2021/01/17 08:25:02;;;;;;;68.02;34.00;;;;;;;-10.12;57.79;99224.91;1719796;83;21493;-63
2021/01/17 08:27:32;;;;;;;63.28;32.00;;;;;;;-9.89;57.58;99228.24;1719872;83;21071;-63
2021/01/17 08:30:08;;;;;;;;;;;;;;;-9.60;57.33;99229.27;1722260;83;21226;-66
2021/01/17 08:32:51;;;;;;;75.72;38.88;;;;;;;-9.34;56.74;99233.04;1719920;83;20228;-67
2021/01/17 08:35:25;;;;;;;74.82;37.15;;;;;;;-9.22;57.03;99235.58;1719841;83;21384;-64
2021/01/17 08:37:55;;;;;;;71.12;36.45;;;;;;;-8.96;56.97;99233.02;1719812;83;21146;-65
2021/01/17 08:40:35;;;;;;;66.00;32.33;;;;;;;-8.73;57.16;99222.86;1708051;83;21159;-65
2021/01/17 08:43:09;;;;;;;44.00;23.92;;;;;;;-8.43;57.13;99220.83;1706373;84;21607;-63
2021/01/17 08:45:48;;;;;;;40.38;21.87;;;;;;;-8.25;56.07;99222.98;1706363;84;21072;-65
2021/01/17 08:48:21;;;;;;;40.08;22.70;;;;;;;-8.28;56.54;99217.85;1706369;83;21208;-64
2021/01/17 08:50:52;;;;;;;36.03;20.92;;;;;;;-8.03;56.24;99220.27;1706366;82;21492;-63
2021/01/17 08:53:29;;;;;;;27.85;15.63;;;;;;;-7.75;55.61;99215.55;1706382;84;21112;-64
2021/01/17 08:56:12;;;;;;;30.50;15.40;;;;;;;-7.68;54.46;99218.70;1706360;83;21081;-63
2021/01/17 08:58:43;;;;;;;31.95;17.00;;;;;;;-7.89;55.03;99225.28;1706491;82;21052;-63
2021/01/17 09:01:13;;;;;;;29.83;16.90;;;;;;;-7.83;55.43;99213.24;1706669;83;22135;-65
2021/01/17 09:03:47;;;;;;;22.75;14.05;;;;;;;-7.78;54.43;99220.52;1706241;82;21785;-65
2021/01/17 09:06:22;;;;;;;26.35;16.10;;;;;;;-7.80;54.62;99220.50;1706330;84;21131;-64
2021/01/17 09:09:00;;;;;;;26.33;15.88;;;;;;;-7.66;54.90;99220.45;1706393;84;21206;-64
2021/01/17 09:11:40;;;;;;;30.62;16.75;;;;;;;-7.54;54.53;99213.59;1706355;83;21076;-66
2021/01/17 09:14:27;;;;;;;28.65;16.57;;;;;;;-7.50;54.75;99209.48;1706423;83;21473;-66
2021/01/17 09:17:03;;;;;;;30.12;16.85;;;;;;;-7.40;54.43;99210.19;1706283;84;21568;-64
2021/01/17 09:19:34;;;;;;;30.32;16.80;;;;;;;-7.35;54.29;99208.60;1686686;84;21081;-65
2021/01/17 09:22:04;;;;;;;24.90;15.68;;;;;;;-7.28;53.90;99207.09;1706426;84;21607;-64
2021/01/17 09:24:35;;;;;;;24.55;14.38;;;;;;;-7.32;54.05;99202.37;1686428;84;21168;-65
2021/01/17 09:27:06;;;;;;;26.45;14.28;;;;;;;-7.39;53.49;99207.66;1706459;82;21396;-64
2021/01/17 09:29:37;;;;;;;25.95;13.58;;;;;;;-7.44;54.18;99211.77;1706340;84;21556;-66
2021/01/17 09:32:09;;;;;;;25.23;14.15;;;;;;;-7.27;53.89;99207.55;1706548;84;21577;-66
2021/01/17 09:34:41;;;;;;;19.05;12.80;;;;;;;-7.16;54.03;99204.86;1706467;84;21513;-63
2021/01/17 09:37:13;;;;;;;25.75;15.38;;;;;;;-7.09;53.16;99207.58;1706623;83;21056;-65
2021/01/17 09:39:43;;;;;;;24.20;14.55;;;;;;;-7.18;53.56;99208.61;1706443;83;21382;-64
2021/01/17 09:42:13;;;;;;;26.75;14.40;;;;;;;-7.11;53.61;99204.16;1706501;83;21817;-64
2021/01/17 09:44:42;;;;;;;24.67;14.23;;;;;;;-7.03;53.27;99202.69;1706451;84;21064;-64
2021/01/17 09:47:16;;;;;;;24.05;13.58;;;;;;;-6.97;53.28;99205.75;1706443;83;21084;-66
2021/01/17 09:49:45;;;;;;;26.77;16.10;;;;;;;-7.02;52.49;99204.80;1706478;82;21080;-65
2021/01/17 09:52:24;;;;;;;28.98;16.07;;;;;;;-7.22;52.73;99197.15;1706471;84;21446;-65
2021/01/17 09:54:54;;;;;;;29.67;14.87;;;;;;;-7.12;53.13;99196.54;1702964;83;21103;-65
2021/01/17 09:57:24;;;;;;;22.85;13.85;;;;;;;-6.89;53.21;99194.16;1706506;84;21604;-64
2021/01/17 09:59:53;;;;;;;27.32;15.15;;;;;;;-6.72;52.65;99199.59;1706426;84;21198;-65
2021/01/17 10:02:23;;;;;;;31.23;16.32;;;;;;;-6.75;52.75;99188.99;1706456;83;21076;-64
2021/01/17 10:04:51;;;;;;;27.58;16.32;;;;;;;-6.57;52.79;99182.62;1706366;84;22843;-67
2021/01/17 10:07:21;;;;;;;25.30;14.85;;;;;;;-6.33;52.43;99192.02;1706419;84;21084;-65
2021/01/17 10:09:51;;;;;;;22.83;14.27;;;;;;;-6.14;51.62;99183.13;1706383;82;21096;-64
2021/01/17 10:12:24;;;;;;;24.05;15.00;;;;;;;-6.03;51.70;99185.47;1706475;84;21100;-65
2021/01/17 10:14:52;;;;;;;23.07;14.95;;;;;;;-5.93;51.53;99188.20;1706592;84;21151;-65
2021/01/17 10:17:22;;;;;;;22.95;13.70;;;;;;;-5.79;51.26;99180.83;1706388;84;21604;-65
2021/01/17 10:19:53;;;;;;;23.80;13.58;;;;;;;-5.81;50.92;99182.50;1706469;84;21497;-65
2021/01/17 10:22:22;;;;;;;29.30;16.87;;;;;;;-5.83;50.52;99185.42;1706532;82;21171;-64
2021/01/17 10:24:50;;;;;;;26.87;15.98;;;;;;;-6.06;50.40;99177.81;1686755;84;21513;-65
2021/01/17 10:27:18;;;;;;;23.25;13.95;;;;;;;-6.26;50.97;99177.41;1706445;84;21550;-64
2021/01/17 10:29:46;;;;;;;25.57;15.32;;;;;;;-6.23;51.21;99176.22;1650415;84;21465;-66
2021/01/17 10:32:15;;;;;;;23.65;14.55;;;;;;;-6.14;51.03;99170.47;1706357;83;21612;-66
2021/01/17 10:34:47;;;;;;;24.57;14.47;;;;;;;-6.27;50.57;99179.09;1706484;83;21580;-65
2021/01/17 10:37:17;;;;;;;24.67;12.65;;;;;;;-6.43;50.75;99177.06;1706536;83;23084;-64
2021/01/17 10:39:46;;;;;;;20.85;11.65;;;;;;;-6.49;50.49;99174.80;1704189;83;21060;-65
2021/01/17 10:42:26;;;;;;;17.82;10.98;;;;;;;-6.70;50.81;99177.72;1706452;84;23545;-66
2021/01/17 10:45:07;;;;;;;22.20;12.73;;;;;;;-6.88;50.81;99175.64;1706354;84;21172;-65
2021/01/17 10:48:05;;;;;;;22.82;13.20;;;;;;;-7.09;51.26;99175.99;1706371;84;21124;-66
2021/01/17 10:50:50;;;;;;;22.22;13.15;;;;;;;-7.05;51.64;99175.25;1706378;82;21584;-64
2021/01/17 10:53:45;;;;;;;22.67;12.58;;;;;;;-7.18;51.65;99171.97;1706406;84;21524;-64
2021/01/17 10:56:11;;;;;;;20.02;12.88;;;;;;;-7.20;52.39;99171.52;1706603;83;21401;-66
2021/01/17 10:58:44;;;;;;;21.93;13.35;;;;;;;-7.15;52.18;99164.88;1705760;83;21635;-64
2021/01/17 11:01:13;;;;;;;25.70;15.15;;;;;;;-7.04;53.06;99165.59;1706310;83;21108;-66
2021/01/17 11:03:45;;;;;;;25.23;15.05;;;;;;;-6.87;52.41;99162.59;1706442;83;21503;-65
2021/01/17 11:06:19;;;;;;;25.65;13.85;;;;;;;-6.70;52.36;99165.94;1706469;84;21575;-65
2021/01/17 11:08:53;;;;;;;25.92;15.35;;;;;;;-6.56;52.13;99165.37;1706337;84;21378;-64
2021/01/17 11:11:23;;;;;;;30.00;17.70;;;;;;;-6.52;52.18;99168.00;1706329;83;21101;-66
2021/01/17 11:14:05;;;;;;;23.05;13.20;;;;;;;-6.43;52.37;99164.83;1706317;84;21235;-66
2021/01/17 11:16:46;;;;;;;21.75;13.80;;;;;;;-6.44;51.88;99161.44;1706441;84;21596;-66
2021/01/17 11:19:15;;;;;;;23.52;13.08;;;;;;;-6.42;52.25;99162.33;1706330;83;21174;-66
2021/01/17 11:21:47;;;;;;;22.07;12.93;;;;;;;-6.48;52.16;99159.66;1706343;84;21378;-64
2021/01/17 11:24:17;;;;;;;22.27;13.55;;;;;;;-6.62;52.07;99163.17;1706052;82;21667;-65
2021/01/17 11:26:48;;;;;;;21.93;13.15;;;;;;;-6.90;52.43;99164.63;1706422;84;21127;-65
2021/01/17 11:29:15;;;;;;;22.45;13.10;;;;;;;-7.09;52.53;99157.03;1706360;83;21575;-64
2021/01/17 11:31:44;;;;;;;27.80;16.42;;;;;;;-7.20;53.08;99161.41;1706445;84;21143;-65
2021/01/17 11:34:16;;;;;;;22.77;14.55;;;;;;;-7.16;53.71;99153.05;1706404;84;21552;-64
2021/01/17 11:36:44;;;;;;;19.75;13.80;;;;;;;-6.96;53.97;99155.63;1706241;83;21164;-65
2021/01/17 11:39:21;;;;;;;20.80;13.70;;;;;;;-6.73;54.14;99157.01;1706409;84;21581;-66
2021/01/17 11:41:50;;;;;;;19.98;12.82;;;;;;;-6.44;53.85;99158.91;1706360;84;21060;-65
2021/01/17 11:44:19;;;;;;;21.90;13.40;;;;;;;-6.27;53.01;99152.92;1706363;82;21060;-66
2021/01/17 11:46:48;;;;;;;25.35;15.58;;;;;;;-6.44;53.13;99156.38;1706328;84;21497;-64
2021/01/17 11:49:25;;;;;;;24.43;14.35;;;;;;;-6.51;53.18;99162.13;1706180;82;21600;-64
2021/01/17 11:51:56;;;;;;;24.47;14.43;;;;;;;-6.58;52.61;99164.06;1706349;84;21572;-66
2021/01/17 11:54:26;;;;;;;28.00;16.37;;;;;;;-6.92;53.01;99151.09;1706304;84;21135;-66
2021/01/17 11:57:04;;;;;;;31.20;16.80;;;;;;;-7.07;53.81;99146.97;1706353;84;21152;-67
2021/01/17 11:59:35;;;;;;;30.70;16.93;;;;;;;-7.00;54.31;99149.68;1706283;84;21554;-65
2021/01/17 12:02:21;;;;;;;26.93;15.38;;;;;;;-6.75;54.90;99151.06;1706234;84;21142;-65
2021/01/17 12:04:59;;;;;;;28.65;15.55;;;;;;;-6.53;54.54;99152.38;1706327;83;21089;-64
2021/01/17 12:07:27;;;;;;;29.32;17.12;;;;;;;-6.34;54.57;99149.81;1706338;83;21145;-65
2021/01/17 12:10:08;;;;;;;25.57;16.65;;;;;;;-6.12;54.41;99150.69;1706274;84;21164;-65
2021/01/17 12:12:40;;;;;;;32.25;16.95;;;;;;;-5.95;54.01;99144.68;1706312;84;21408;-65
2021/01/17 12:15:10;;;;;;;31.40;18.23;;;;;;;-5.91;53.51;99132.52;1706581;83;21083;-64
2021/01/17 12:17:38;;;;;;;29.32;18.30;;;;;;;-5.92;53.52;99129.55;1706375;82;22175;-64
2021/01/17 12:20:08;;;;;;;29.32;18.30;;;;;;;-5.83;53.47;99122.52;1706408;84;21583;-65
2021/01/17 12:22:36;;;;;;;28.70;18.12;;;;;;;-5.81;53.21;99124.66;1706309;84;21585;-64
2021/01/17 12:25:07;;;;;;;26.97;16.30;;;;;;;-5.82;52.77;99124.22;1706402;84;22147;-64
2021/01/17 12:27:35;;;;;;;26.10;15.80;;;;;;;-5.96;52.38;99128.63;1706363;84;21583;-64
2021/01/17 12:30:06;;;;;;;34.63;19.45;;;;;;;-6.30;52.32;99128.41;1706310;84;21144;-65
2021/01/17 12:32:34;;;;;;;27.58;16.65;;;;;;;-6.47;53.02;99128.48;1706310;83;21148;-64
2021/01/17 12:35:04;;;;;;;29.70;17.23;;;;;;;-6.51;53.40;99125.85;1706296;84;21153;-64
2021/01/17 12:37:32;;;;;;;31.33;17.60;;;;;;;-6.53;53.54;99132.55;1706325;84;21376;-65
2021/01/17 12:40:01;;;;;;;29.35;17.40;;;;;;;-6.62;54.12;99131.55;1706135;83;21198;-63
2021/01/17 12:42:30;;;;;;;30.62;18.42;;;;;;;-6.59;54.29;99130.73;1706306;84;21072;-64
2021/01/17 12:44:58;;;;;;;30.45;17.52;;;;;;;-6.65;54.58;99124.30;1706420;84;21092;-64
2021/01/17 12:47:26;;;;;;;27.30;16.75;;;;;;;-6.71;54.59;99127.96;1706307;82;21502;-65
2021/01/17 12:49:56;;;;;;;28.80;16.52;;;;;;;-6.72;55.08;99126.25;1706097;82;21362;-65
2021/01/17 12:52:24;;;;;;;26.05;15.93;;;;;;;-6.67;54.85;99119.63;1706255;82;21596;-65
2021/01/17 12:54:52;;;;;;;29.57;17.57;;;;;;;-6.66;54.77;99118.80;1706422;83;21599;-65
2021/01/17 12:57:20;;;;;;;30.20;16.57;;;;;;;-6.65;54.92;99121.37;1706337;83;21090;-65
2021/01/17 12:59:49;;;;;;;31.30;17.70;;;;;;;-6.65;54.92;99123.90;1706406;84;21481;-64
2021/01/17 13:02:17;;;;;;;27.17;17.02;;;;;;;-6.81;54.65;99126.07;1706591;82;22304;-64
2021/01/17 13:04:45;;;;;;;50.40;26.15;;;;;;;-7.07;55.04;99126.74;1706406;84;21567;-64
2021/01/17 13:07:14;;;;;;;27.67;16.30;;;;;;;-7.21;55.68;99131.90;1706517;84;21576;-64
2021/01/17 13:09:42;;;;;;;24.15;15.58;;;;;;;-7.24;55.83;99126.77;1706482;84;21984;-65
2021/01/17 13:12:11;;;;;;;25.43;15.90;;;;;;;-7.26;55.71;99132.19;1706513;83;21067;-64
2021/01/17 13:14:40;;;;;;;29.48;16.73;;;;;;;-7.41;55.79;99135.21;1706517;83;22287;-64
2021/01/17 13:17:08;;;;;;;24.72;15.58;;;;;;;-7.47;56.39;99137.17;1706403;84;21109;-65
2021/01/17 13:19:37;;;;;;;50.15;28.05;;;;;;;-7.47;56.45;99132.53;1706535;84;21092;-63
2021/01/17 13:22:06;;;;;;;40.33;23.25;;;;;;;-7.48;56.67;99124.50;1706541;83;21569;-64
2021/01/17 13:24:36;;;;;;;37.48;21.93;;;;;;;-7.49;56.79;99129.96;1706462;82;21123;-64
2021/01/17 13:27:05;;;;;;;35.55;19.80;;;;;;;-7.44;57.14;99128.41;1706529;84;22327;-65
2021/01/17 13:29:33;;;;;;;28.73;18.00;;;;;;;-7.35;57.16;99132.41;1706476;83;21113;-65
2021/01/17 13:32:03;;;;;;;28.52;16.00;;;;;;;-7.47;56.79;99131.27;1706467;84;21182;-63
2021/01/17 13:34:32;;;;;;;26.20;16.25;;;;;;;-7.69;57.21;99129.47;1706462;84;21672;-64
2021/01/17 13:37:00;;;;;;;35.25;21.77;;;;;;;-7.85;57.25;99137.88;1706489;84;21506;-64
2021/01/17 13:39:29;;;;;;;31.50;17.55;;;;;;;-7.96;57.72;99146.82;1706407;84;21498;-64
2021/01/17 13:41:56;;;;;;;23.67;14.15;;;;;;;-7.95;58.04;99138.03;1718066;83;21504;-65
2021/01/17 13:44:25;;;;;;;35.95;18.20;;;;;;;-7.91;58.05;99140.23;1720054;83;21559;-64
2021/01/17 13:46:54;;;;;;;50.45;22.85;;;;;;;-7.97;58.21;99137.53;1719983;83;21580;-65
2021/01/17 13:49:22;;;;;;;59.18;27.40;;;;;;;-7.98;58.30;99135.42;1720010;82;21233;-65
2021/01/17 13:51:51;;;;;;;49.05;24.72;;;;;;;-7.98;58.30;99140.47;1719944;83;21382;-65
2021/01/17 13:54:20;;;;;;;34.08;19.65;;;;;;;-7.94;58.46;99137.63;1719908;83;21152;-63
2021/01/17 13:56:48;;;;;;;39.83;25.08;;;;;;;-7.94;58.16;99139.73;1720065;82;21488;-64
2021/01/17 13:59:17;;;;;;;29.95;18.40;;;;;;;-8.00;58.29;99134.55;1720063;83;21569;-64
2021/01/17 14:01:46;;;;;;;33.10;18.52;;;;;;;-8.08;58.54;99135.59;1720086;83;21595;-64
2021/01/17 14:04:15;;;;;;;31.75;17.73;;;;;;;-8.15;58.65;99137.50;1720010;83;21396;-65
2021/01/17 14:06:43;;;;;;;43.40;25.20;;;;;;;-8.16;58.85;99139.97;1719872;83;21567;-65
2021/01/17 14:09:11;;;;;;;36.75;23.22;;;;;;;-8.19;58.83;99147.05;1719975;82;21071;-64
2021/01/17 14:11:39;;;;;;;36.23;24.63;;;;;;;-8.28;58.72;99153.52;1719935;83;21068;-64
2021/01/17 14:14:07;;;;;;;30.08;20.72;;;;;;;-8.35;59.05;99150.86;1720030;83;21493;-65
2021/01/17 14:16:43;;;;;;;36.73;19.62;;;;;;;-8.36;59.20;99153.33;1719933;83;22376;-64
2021/01/17 14:19:11;;;;;;;31.93;18.87;;;;;;;-8.40;59.40;99154.94;1719941;83;21063;-64
2021/01/17 14:21:42;;;;;;;34.53;19.65;;;;;;;-8.46;59.28;99157.28;1719927;82;21076;-65
2021/01/17 14:24:11;;;;;;;29.72;16.42;;;;;;;-8.62;59.43;99161.43;1719920;83;21075;-66
2021/01/17 14:26:39;;;;;;;30.30;16.95;;;;;;;-8.74;59.89;99155.61;1719957;83;21504;-64
2021/01/17 14:29:10;;;;;;;29.05;16.80;;;;;;;-8.82;59.98;99165.03;1720049;83;22130;-64
2021/01/17 14:31:43;;;;;;;30.10;17.73;;;;;;;-8.87;60.45;99165.28;1719850;83;21095;-64
2021/01/17 14:34:13;;;;;;;26.12;15.28;;;;;;;-8.85;60.72;99165.78;1720075;83;21487;-63
2021/01/17 14:36:43;;;;;;;27.67;15.25;;;;;;;-8.91;60.83;99163.06;1720004;82;21496;-64
2021/01/17 14:39:15;;;;;;;26.50;15.88;;;;;;;-9.00;60.98;99164.47;1720048;83;21060;-65
2021/01/17 14:41:43;;;;;;;23.57;14.90;;;;;;;-9.14;61.18;99167.80;1719928;83;21221;-65
2021/01/17 14:44:11;;;;;;;27.20;15.28;;;;;;;-9.17;61.46;99166.03;1719899;83;21076;-65
2021/01/17 14:46:44;;;;;;;26.33;16.55;;;;;;;-9.27;61.62;99169.08;1719939;83;21491;-65
2021/01/17 14:49:13;;;;;;;24.30;15.93;;;;;;;-9.35;62.05;99170.48;1720180;83;21492;-65
2021/01/17 14:51:41;;;;;;;23.90;14.73;;;;;;;-9.34;62.46;99165.05;1720001;82;21087;-64
2021/01/17 14:54:10;;;;;;;40.45;25.43;;;;;;;-9.28;62.82;99160.22;1719957;83;22326;-66
2021/01/17 14:56:47;;;;;;;29.90;20.30;;;;;;;-9.23;62.65;99165.00;1719826;82;21107;-64
2021/01/17 14:59:18;;;;;;;43.17;23.95;;;;;;;-9.22;62.85;99164.20;1719899;82;21587;-64
2021/01/17 15:01:47;;;;;;;48.92;27.67;;;;;;;-9.22;62.89;99165.05;1719924;83;21080;-63
2021/01/17 15:04:15;;;;;;;45.23;24.45;;;;;;;-9.26;62.94;99159.86;1720080;83;21560;-64
2021/01/17 15:06:43;;;;;;;36.33;21.15;;;;;;;-9.42;62.82;99164.82;1720035;83;22084;-64
2021/01/17 15:09:12;;;;;;;41.02;21.30;;;;;;;-9.61;63.26;99167.55;1719923;83;21079;-64
2021/01/17 15:11:40;;;;;;;37.05;22.75;;;;;;;-9.64;63.65;99174.98;1719984;83;21067;-64
2021/01/17 15:14:08;;;;;;;33.55;21.00;;;;;;;-9.63;63.63;99172.92;1719924;83;21511;-64
2021/01/17 15:16:39;;;;;;;35.25;20.17;;;;;;;-9.66;63.70;99170.30;1720018;83;21059;-65
2021/01/17 15:19:07;;;;;;;34.92;18.00;;;;;;;-9.63;63.70;99172.92;1720029;82;22281;-64
2021/01/17 15:21:36;;;;;;;29.02;16.07;;;;;;;-9.64;63.47;99174.98;1719782;83;21155;-64
2021/01/17 15:24:08;;;;;;;28.65;15.58;;;;;;;-9.81;63.31;99174.02;1719960;83;21131;-65
2021/01/17 15:26:35;;;;;;;46.33;25.50;;;;;;;-9.94;63.54;99179.81;1719991;83;21175;-64
2021/01/17 15:29:04;;;;;;;39.45;21.57;;;;;;;-9.97;63.72;99178.45;1719929;83;21131;-64
2021/01/17 15:31:32;;;;;;;34.40;17.48;;;;;;;-10.01;63.79;99177.52;1719958;83;22304;-63
2021/01/17 15:34:01;;;;;;;39.20;19.92;;;;;;;-9.98;63.81;99183.02;1719943;83;21500;-64
2021/01/17 15:36:29;;;;;;;45.23;24.37;;;;;;;-10.03;63.96;99182.89;1719910;83;21699;-64
2021/01/17 15:38:57;;;;;;;33.65;19.87;;;;;;;-9.94;63.94;99179.81;1719889;83;21497;-65
2021/01/17 15:41:31;;;;;;;30.57;18.27;;;;;;;-9.92;63.91;99180.73;1719811;82;21111;-64
2021/01/17 15:43:59;;;;;;;29.70;16.15;;;;;;;-9.96;63.75;99186.45;1719919;83;21444;-64
2021/01/17 15:46:27;;;;;;;30.95;16.65;;;;;;;-9.90;63.96;99191.30;1719801;83;21104;-64
2021/01/17 15:48:57;;;;;;;40.98;18.12;;;;;;;-9.86;63.87;99193.13;1719882;83;21100;-65
2021/01/17 15:51:25;;;;;;;35.73;18.12;;;;;;;-9.79;63.87;99192.95;1719862;82;21912;-64
2021/01/17 15:53:53;;;;;;;37.50;19.60;;;;;;;-9.73;63.77;99194.39;1719893;83;21617;-65
2021/01/17 15:56:23;;;;;;;34.27;19.32;;;;;;;-9.67;63.47;99190.84;1719953;83;22283;-63
2021/01/17 15:58:52;;;;;;;35.83;18.25;;;;;;;-9.74;62.81;99191.02;1719780;83;21868;-64
2021/01/17 16:01:23;;;;;;;38.10;20.68;;;;;;;-9.89;62.67;99193.02;1719897;83;21505;-65
2021/01/17 16:03:52;;;;;;;36.23;20.37;;;;;;;-10.07;62.75;99191.52;1720102;83;21667;-64
2021/01/17 16:06:20;;;;;;;31.68;16.87;;;;;;;-10.24;63.08;99188.44;1719919;82;21489;-63
2021/01/17 16:08:50;;;;;;;25.70;15.68;;;;;;;-10.38;63.32;99190.84;1719998;83;22114;-63
2021/01/17 16:11:29;;;;;;;32.90;16.45;;;;;;;-10.48;63.62;99193.03;1719876;83;21533;-63
2021/01/17 16:13:57;;;;;;;24.60;13.53;;;;;;;-10.57;63.88;99188.91;1719844;83;21226;-64